Search for airport 
image banner adimage banner adimage banner ad
image banner ad

7CA4 - Desert Regional Medical Center

Located in Palm Springs, United States

ICAO - 7CA4, IATA -

Data provided by Airmate  

General information

Coordinates: N33°50'18" W116°32'38"
Elevation is 560 feet MSL.
 
View others Airports in California

Operational data

Special qualification required
Current time UTC:
Current local time:
Weather at : KPSP - Palm Springs Intl ( 4 km )
METAR: KPSP 210253Z 00000KT 10SM CLR 34/07 A2990 RMK AO2 SLP120 T03440067 53015
TAF: KPSP 202324Z 2100/2124 12007KT P6SM SKC FM210300 33005KT P6SM SKC FM211900 12007KT P6SM SKC
View NOTAMs / SUP AIP / TFR affecting this airport [VIEW]
Communications frequencies: [VIEW]

Runways:

Airport contact information

Address: Palm Springs United States

Satellite view of 7CA4